Farmington River @ Riverton, Ct

W.B. Farmington River at Riverton
 Total Drainage Area: 131 sq. miles 
 Drainage Area Controlled by Corps Dams: 118 sq. miles (90%) 
 Warning Flow/Stage: 1,505 cfs / 6.5 feet 
 Flood Flow/Stage: 3,010 cfs / 8.1 feet 
Date Time
(Eastern)
Stage
(ft)
Flow
(cfs)
CSM
May-28 11:30 am 3.80 165 1.3
May-28 10:30 am 3.78 159 1.2
May-28 09:30 am 3.79 162 1.2
May-28 08:30 am 3.80 165 1.3
May-28 07:30 am 3.79 162 1.2
May-28 06:30 am 3.79 162 1.2
May-28 05:30 am 3.78 159 1.2
May-28 04:30 am 3.80 165 1.3
May-28 03:30 am 3.80 165 1.3
May-28 02:30 am 3.79 162 1.2
May-28 01:30 am 3.76 154 1.2
May-28 12:30 am 3.78 159 1.2
May-27 11:30 pm 3.78 159 1.2
May-27 10:30 pm 3.77 157 1.2
May-27 09:30 pm 3.78 159 1.2
May-27 08:30 pm 3.78 159 1.2
May-27 07:30 pm 3.79 162 1.2
May-27 06:30 pm 3.77 157 1.2
May-27 05:30 pm 3.76 154 1.2
May-27 04:30 pm 3.77 157 1.2
May-27 03:30 pm 3.78 159 1.2
May-27 02:30 pm 3.77 157 1.2
May-27 01:30 pm 3.78 159 1.2
May-27 12:30 pm 3.78 159 1.2
May-27 11:30 am 3.76 154 1.2
Report Generated May 28, 2022 04:12 pm